Time;durP1;ratioP1;P1;durP2;ratioP2;P2;SDS_P1;SDS_P2;PMS_P1;PMS_P2;Temp;Humidity;BMP_temperature;BMP_pressure;BME280_temperature;BME280_humidity;BME280_pressure;Samples;Min_cycle;Max_cycle;Signal;HPM_P1;HPM_P2
2023/06/11 00:01:16;;;;;;;11.10;5.55;;;18.50;99.90;;;;;;5052744;28;20048;-73
2023/06/11 00:03:42;;;;;;;10.18;5.43;;;18.60;99.90;;;;;;5052783;28;20048;-74
2023/06/11 00:06:08;;;;;;;14.00;4.97;;;18.60;99.90;;;;;;5069662;28;20063;-74
2023/06/11 00:08:34;;;;;;;11.30;5.90;;;18.60;99.90;;;;;;5037204;28;20496;-74
2023/06/11 00:11:00;;;;;;;13.90;6.30;;;18.50;99.90;;;;;;5053688;28;20043;-74
2023/06/11 00:13:27;;;;;;;15.52;6.57;;;18.50;99.90;;;;;;5073591;28;20044;-75
2023/06/11 00:15:53;;;;;;;13.20;5.18;;;18.50;99.90;;;;;;5057673;28;20412;-75
2023/06/11 00:18:19;;;;;;;14.35;6.43;;;18.50;99.90;;;;;;5054479;28;20044;-74
2023/06/11 00:20:46;;;;;;;12.98;5.57;;;18.50;99.90;;;;;;5055909;28;20040;-75
2023/06/11 00:23:12;;;;;;;11.68;5.60;;;18.50;99.90;;;;;;5033986;28;20079;-75
2023/06/11 00:25:37;;;;;;;10.30;5.30;;;18.50;99.90;;;;;;5053691;28;20044;-74
2023/06/11 00:28:03;;;;;;;14.23;5.55;;;18.50;99.90;;;;;;5053001;28;21811;-74
2023/06/11 00:30:29;;;;;;;12.02;5.57;;;18.50;99.90;;;;;;5058226;28;20059;-74
2023/06/11 00:32:55;;;;;;;10.15;5.03;;;18.50;99.90;;;;;;5068669;28;20047;-75
2023/06/11 00:35:21;;;;;;;11.02;5.38;;;18.50;99.90;;;;;;5055267;28;20049;-75
2023/06/11 00:37:47;;;;;;;15.35;6.35;;;18.50;99.90;;;;;;5070200;28;20106;-74
2023/06/11 00:40:13;;;;;;;14.55;5.97;;;18.50;99.90;;;;;;5071307;28;20513;-74
2023/06/11 00:42:40;;;;;;;15.00;6.10;;;18.50;99.90;;;;;;5055751;28;20048;-74
2023/06/11 00:45:07;;;;;;;11.18;5.65;;;18.50;99.90;;;;;;5055614;28;20051;-74
2023/06/11 00:47:35;;;;;;;11.73;5.97;;;18.50;99.90;;;;;;5056029;28;20059;-74
2023/06/11 00:50:03;;;;;;;13.40;5.93;;;18.50;99.90;;;;;;5059136;28;20040;-75
2023/06/11 00:52:29;;;;;;;13.63;5.97;;;18.50;99.90;;;;;;5054377;28;20253;-74
2023/06/11 00:54:55;;;;;;;12.13;5.72;;;18.50;99.90;;;;;;5055378;28;20040;-75
2023/06/11 00:57:24;;;;;;;10.70;6.28;;;18.50;99.90;;;;;;5053357;28;20044;-74
2023/06/11 00:59:54;;;;;;;12.20;6.13;;;18.50;99.90;;;;;;5052696;28;20064;-75
2023/06/11 01:02:28;;;;;;;11.63;6.65;;;18.50;99.90;;;;;;5053714;28;20428;-74
2023/06/11 01:04:58;;;;;;;13.65;5.45;;;18.40;99.90;;;;;;5057820;28;20037;-75
2023/06/11 01:07:30;;;;;;;11.68;5.47;;;18.50;99.90;;;;;;5033919;28;20110;-74
2023/06/11 01:09:57;;;;;;;15.70;5.95;;;18.40;99.90;;;;;;5056219;28;20052;-75
2023/06/11 01:12:23;;;;;;;10.38;6.10;;;18.40;99.90;;;;;;5053926;28;20431;-75
2023/06/11 01:14:48;;;;;;;15.15;6.47;;;18.40;99.90;;;;;;5053933;28;20043;-74
2023/06/11 01:17:23;;;;;;;12.65;5.80;;;18.40;99.90;;;;;;5055881;28;20063;-74
2023/06/11 01:20:25;;;;;;;10.38;6.03;;;18.40;99.90;;;;;;5057241;28;20417;-74
2023/06/11 01:23:11;;;;;;;14.45;6.18;;;18.40;99.90;;;;;;5043862;28;20057;-74
2023/06/11 01:26:09;;;;;;;13.80;5.80;;;18.30;99.90;;;;;;5030314;28;20048;-75
2023/06/11 01:28:38;;;;;;;12.73;6.35;;;18.40;99.90;;;;;;5060949;28;20082;-74
2023/06/11 01:31:11;;;;;;;12.50;5.85;;;18.30;99.90;;;;;;5050246;28;21041;-75
2023/06/11 01:33:37;;;;;;;12.70;6.20;;;18.30;99.90;;;;;;5036844;28;20045;-75
2023/06/11 01:36:05;;;;;;;15.25;7.53;;;18.30;99.90;;;;;;5054693;28;20044;-75
2023/06/11 01:38:34;;;;;;;13.18;6.47;;;18.30;99.90;;;;;;5053803;28;20045;-75
2023/06/11 01:41:01;;;;;;;11.65;6.18;;;18.20;99.90;;;;;;5057850;28;20040;-74
2023/06/11 01:43:30;;;;;;;10.52;5.75;;;18.20;99.90;;;;;;5092092;28;20382;-75
2023/06/11 01:45:56;;;;;;;14.15;6.47;;;18.20;99.90;;;;;;5044065;28;20037;-75
2023/06/11 01:48:22;;;;;;;9.90;5.50;;;18.20;99.90;;;;;;5056679;28;20094;-74
2023/06/11 01:50:47;;;;;;;10.80;6.15;;;18.10;99.90;;;;;;5056304;28;20052;-75
2023/06/11 01:53:14;;;;;;;14.98;6.18;;;18.10;99.90;;;;;;5059140;28;20040;-74
2023/06/11 01:55:40;;;;;;;12.38;6.35;;;18.10;99.90;;;;;;5036252;28;20079;-74
2023/06/11 01:58:05;;;;;;;10.40;5.68;;;18.10;99.90;;;;;;5057434;28;20181;-74
2023/06/11 02:00:31;;;;;;;10.68;6.85;;;18.00;99.90;;;;;;5057328;28;20423;-75
2023/06/11 02:02:59;;;;;;;11.50;6.55;;;18.00;99.90;;;;;;5056600;28;20742;-74
2023/06/11 02:05:25;;;;;;;15.88;6.47;;;18.00;99.90;;;;;;5040982;28;20155;-75
2023/06/11 02:07:51;;;;;;;10.27;6.18;;;18.00;99.90;;;;;;5058932;28;20197;-74
2023/06/11 02:10:16;;;;;;;13.13;7.20;;;18.00;99.90;;;;;;5057459;28;20045;-74
2023/06/11 02:12:42;;;;;;;12.52;7.10;;;17.90;99.90;;;;;;5058357;28;20090;-74
2023/06/11 02:15:08;;;;;;;10.40;6.57;;;17.90;99.90;;;;;;5052046;28;20037;-75
2023/06/11 02:17:34;;;;;;;11.70;6.97;;;17.80;99.90;;;;;;5055246;28;20048;-75
2023/06/11 02:19:59;;;;;;;11.00;7.00;;;17.80;99.90;;;;;;5058431;28;20120;-75
2023/06/11 02:22:25;;;;;;;14.65;7.35;;;17.80;99.90;;;;;;5058166;28;20040;-74
2023/06/11 02:24:51;;;;;;;12.45;7.53;;;17.80;99.90;;;;;;5056453;28;20072;-74
2023/06/11 02:27:17;;;;;;;12.45;7.22;;;17.70;99.90;;;;;;5058672;28;20058;-74
2023/06/11 02:29:42;;;;;;;13.50;7.40;;;17.70;99.90;;;;;;5056501;28;20130;-75
2023/06/11 02:32:10;;;;;;;13.63;7.30;;;17.70;99.90;;;;;;5054774;28;20144;-75
2023/06/11 02:34:36;;;;;;;14.73;8.20;;;17.70;99.90;;;;;;5056035;28;20047;-74
2023/06/11 02:37:02;;;;;;;13.85;7.50;;;17.70;99.90;;;;;;5090684;28;20730;-74
2023/06/11 02:39:27;;;;;;;13.07;7.53;;;17.70;99.90;;;;;;5054577;28;20036;-74
2023/06/11 02:41:53;;;;;;;11.65;8.00;;;17.70;99.90;;;;;;5056387;28;20148;-74
2023/06/11 02:44:19;;;;;;;11.75;7.35;;;17.60;99.90;;;;;;5053858;28;20044;-74
2023/06/11 02:46:45;;;;;;;11.75;7.63;;;17.60;99.90;;;;;;5054492;28;20107;-74
2023/06/11 02:49:11;;;;;;;14.43;7.70;;;17.60;99.90;;;;;;5059118;28;20599;-73
2023/06/11 02:51:36;;;;;;;11.75;7.90;;;17.60;99.90;;;;;;5060438;28;20087;-74
2023/06/11 02:54:02;;;;;;;11.27;7.32;;;17.60;99.90;;;;;;5055970;28;20060;-74
2023/06/11 02:56:28;;;;;;;12.40;8.30;;;17.60;99.90;;;;;;5057885;28;20124;-74
2023/06/11 02:58:54;;;;;;;11.23;7.28;;;17.60;99.90;;;;;;5056094;28;20045;-74
2023/06/11 03:01:20;;;;;;;13.00;7.72;;;17.50;99.90;;;;;;5055210;28;20099;-74
2023/06/11 03:03:45;;;;;;;13.88;8.02;;;17.50;99.90;;;;;;5057828;28;20745;-73
2023/06/11 03:06:11;;;;;;;10.98;7.35;;;17.50;99.90;;;;;;5057497;28;20036;-74
2023/06/11 03:08:37;;;;;;;15.68;8.48;;;17.50;99.90;;;;;;5054155;28;21823;-74
2023/06/11 03:11:03;;;;;;;11.57;8.38;;;17.50;99.90;;;;;;5055628;28;20416;-74
2023/06/11 03:13:28;;;;;;;12.65;8.38;;;17.40;99.90;;;;;;5055575;28;20047;-74
2023/06/11 03:15:55;;;;;;;13.85;7.93;;;17.30;99.90;;;;;;5056488;28;20047;-74
2023/06/11 03:18:20;;;;;;;11.13;7.95;;;17.40;99.90;;;;;;5056059;28;20040;-74
2023/06/11 03:20:46;;;;;;;12.50;8.32;;;17.40;99.90;;;;;;5039653;28;20061;-74
2023/06/11 03:23:14;;;;;;;13.98;8.20;;;17.40;99.90;;;;;;5053667;28;20059;-74
2023/06/11 03:25:40;;;;;;;11.43;7.95;;;17.30;99.90;;;;;;5055169;28;20071;-74
2023/06/11 03:28:06;;;;;;;15.07;8.55;;;17.30;99.90;;;;;;5052284;28;20040;-74
2023/06/11 03:30:31;;;;;;;12.77;8.25;;;17.30;99.90;;;;;;5048125;28;20047;-74
2023/06/11 03:32:57;;;;;;;11.80;8.40;;;17.30;99.90;;;;;;5042975;28;20132;-74
2023/06/11 03:35:23;;;;;;;11.93;8.70;;;17.30;99.90;;;;;;5048691;28;20137;-74
2023/06/11 03:37:48;;;;;;;13.30;8.90;;;17.30;99.90;;;;;;5054504;28;20844;-74
2023/06/11 03:40:14;;;;;;;15.13;9.60;;;17.30;99.90;;;;;;5053980;28;20106;-74
2023/06/11 03:42:40;;;;;;;10.93;8.10;;;17.20;99.90;;;;;;5052245;28;20055;-75
2023/06/11 03:45:06;;;;;;;14.57;8.55;;;17.20;99.90;;;;;;5055076;28;20049;-74
2023/06/11 03:47:32;;;;;;;10.70;8.02;;;17.20;99.90;;;;;;5050471;28;20052;-74
2023/06/11 03:49:58;;;;;;;12.20;7.88;;;17.20;99.90;;;;;;5049437;28;20071;-74
2023/06/11 03:52:23;;;;;;;19.13;8.65;;;17.20;99.90;;;;;;5033594;28;20382;-74
2023/06/11 03:54:49;;;;;;;10.95;8.40;;;17.20;99.90;;;;;;5054376;28;22112;-75
2023/06/11 03:57:17;;;;;;;13.07;8.70;;;17.20;99.90;;;;;;5034056;28;20044;-75
2023/06/11 03:59:43;;;;;;;15.00;8.35;;;17.20;99.90;;;;;;5068825;28;20044;-75
2023/06/11 04:02:09;;;;;;;12.88;8.45;;;17.20;99.90;;;;;;5048790;28;20864;-73
2023/06/11 04:04:34;;;;;;;13.95;8.60;;;17.20;99.90;;;;;;5050286;28;20420;-74
2023/06/11 04:07:00;;;;;;;13.40;8.68;;;17.20;99.90;;;;;;5049039;28;20055;-74
2023/06/11 04:09:26;;;;;;;15.85;9.48;;;17.20;99.90;;;;;;5054483;28;20040;-74
2023/06/11 04:11:52;;;;;;;14.57;8.75;;;17.20;99.90;;;;;;5054009;28;20118;-74
2023/06/11 04:14:17;;;;;;;11.80;8.65;;;17.20;99.90;;;;;;5050635;28;20398;-74
2023/06/11 04:16:43;;;;;;;16.15;9.25;;;17.20;99.90;;;;;;5053725;28;20039;-73
2023/06/11 04:19:09;;;;;;;10.88;8.15;;;17.20;99.90;;;;;;5051362;28;20140;-74
2023/06/11 04:21:35;;;;;;;15.88;8.65;;;17.20;99.90;;;;;;5052218;28;20036;-73
2023/06/11 04:24:01;;;;;;;11.95;8.48;;;17.20;99.90;;;;;;5054659;28;20052;-74
2023/06/11 04:26:26;;;;;;;14.82;8.98;;;17.20;99.90;;;;;;5056158;28;20078;-74
2023/06/11 04:28:52;;;;;;;13.20;8.85;;;17.20;99.90;;;;;;5055732;28;20060;-73
2023/06/11 04:31:18;;;;;;;12.38;9.20;;;17.20;99.90;;;;;;5055509;28;20051;-74
2023/06/11 04:33:45;;;;;;;15.48;9.10;;;17.30;99.90;;;;;;5049622;28;20168;-74
2023/06/11 04:36:11;;;;;;;13.82;8.43;;;17.40;99.90;;;;;;5051040;28;20045;-75
2023/06/11 04:38:44;;;;;;;13.70;8.30;;;17.60;99.90;;;;;;5057257;28;20047;-75
2023/06/11 04:41:11;;;;;;;13.93;8.35;;;17.80;99.90;;;;;;5083459;28;21099;-75
2023/06/11 04:43:37;;;;;;;12.15;7.75;;;18.10;99.90;;;;;;5048576;28;20033;-75
2023/06/11 04:46:04;;;;;;;14.60;8.38;;;18.40;99.90;;;;;;5052559;28;20405;-75
2023/06/11 04:48:34;;;;;;;12.73;7.28;;;18.60;99.90;;;;;;5057782;28;20041;-75
2023/06/11 04:51:01;;;;;;;11.77;7.40;;;18.90;99.90;;;;;;5050151;28;21770;-75
2023/06/11 04:53:28;;;;;;;13.80;7.45;;;19.10;99.90;;;;;;5058609;28;20055;-75
2023/06/11 04:55:56;;;;;;;13.38;7.20;;;19.40;99.90;;;;;;5053917;28;20037;-75
2023/06/11 04:58:23;;;;;;;12.80;7.32;;;19.60;99.90;;;;;;5049603;28;20079;-75
2023/06/11 05:00:50;;;;;;;10.38;7.25;;;19.80;99.90;;;;;;5053483;28;20041;-74
2023/06/11 05:03:17;;;;;;;10.82;6.85;;;20.10;99.90;;;;;;5056211;28;20041;-75
2023/06/11 05:05:49;;;;;;;13.23;7.57;;;20.30;99.90;;;;;;5055001;28;20067;-73
2023/06/11 05:08:20;;;;;;;12.48;6.97;;;20.50;99.90;;;;;;5051604;28;20083;-74
2023/06/11 05:10:46;;;;;;;9.65;6.30;;;20.70;99.90;;;;;;5052598;28;20040;-75
2023/06/11 05:13:12;;;;;;;10.57;6.88;;;20.90;99.90;;;;;;5048669;28;20045;-74
2023/06/11 05:15:38;;;;;;;9.27;6.75;;;21.20;99.90;;;;;;5054238;28;20171;-74
2023/06/11 05:18:03;;;;;;;12.63;7.20;;;21.40;99.90;;;;;;5039771;28;20065;-75
2023/06/11 05:20:29;;;;;;;12.82;6.82;;;21.60;99.90;;;;;;5072977;28;20507;-75
2023/06/11 05:22:59;;;;;;;11.35;7.20;;;21.80;99.90;;;;;;5060273;28;20029;-74
2023/06/11 05:25:28;;;;;;;11.02;6.70;;;22.00;99.90;;;;;;5056538;28;20044;-75
2023/06/11 05:28:07;;;;;;;9.30;5.97;;;22.20;99.90;;;;;;5060198;28;20131;-74
2023/06/11 05:30:39;;;;;;;11.10;6.15;;;22.20;99.90;;;;;;5089835;28;20045;-74
2023/06/11 05:33:05;;;;;;;11.77;7.28;;;22.10;99.90;;;;;;5053338;28;20139;-74
2023/06/11 05:35:31;;;;;;;11.45;7.65;;;21.90;99.90;;;;;;5057828;28;20036;-74
2023/06/11 05:37:57;;;;;;;12.38;7.40;;;21.60;99.90;;;;;;5041463;28;20044;-74
2023/06/11 05:40:23;;;;;;;10.57;7.75;;;21.40;99.90;;;;;;5057083;28;20045;-75
2023/06/11 05:42:49;;;;;;;10.32;6.97;;;21.20;99.90;;;;;;5058293;28;20048;-74
2023/06/11 05:45:16;;;;;;;11.15;7.10;;;21.10;99.90;;;;;;5040141;28;20090;-74
2023/06/11 05:47:41;;;;;;;10.70;7.72;;;20.90;99.90;;;;;;5054409;28;20123;-74
2023/06/11 05:50:07;;;;;;;10.25;7.43;;;20.80;99.90;;;;;;5057224;28;20059;-74
2023/06/11 05:52:33;;;;;;;11.85;7.22;;;20.70;99.90;;;;;;5057897;28;20110;-75
2023/06/11 05:54:59;;;;;;;13.48;7.82;;;20.70;99.90;;;;;;5056756;28;20089;-74
2023/06/11 05:57:25;;;;;;;15.63;7.60;;;20.60;99.90;;;;;;5035522;28;20930;-74
2023/06/11 05:59:52;;;;;;;10.65;7.22;;;20.50;99.90;;;;;;5056615;28;20037;-74
2023/06/11 06:02:18;;;;;;;15.27;7.50;;;20.50;99.90;;;;;;5059430;28;20049;-74
2023/06/11 06:04:48;;;;;;;9.45;7.10;;;20.70;99.90;;;;;;5057547;28;20116;-74
2023/06/11 06:07:16;;;;;;;13.05;7.57;;;20.90;99.90;;;;;;5040322;28;20664;-74
2023/06/11 06:09:41;;;;;;;13.40;6.93;;;21.10;99.90;;;;;;5091797;28;20051;-74
2023/06/11 06:12:07;;;;;;;11.77;7.50;;;21.40;99.90;;;;;;5085789;28;20048;-74
2023/06/11 06:14:33;;;;;;;10.40;7.15;;;21.60;99.90;;;;;;5058061;28;20970;-74
2023/06/11 06:16:59;;;;;;;9.55;7.18;;;21.80;99.90;;;;;;5056415;28;20045;-74
2023/06/11 06:19:25;;;;;;;13.60;7.47;;;22.10;99.90;;;;;;5059446;28;20036;-75
2023/06/11 06:21:50;;;;;;;8.95;6.45;;;22.30;99.90;;;;;;5061514;28;20563;-75
2023/06/11 06:24:16;;;;;;;10.27;6.85;;;22.40;99.90;;;;;;5043200;28;20043;-74
2023/06/11 06:26:42;;;;;;;16.50;8.27;;;22.40;99.90;;;;;;5052311;28;20515;-75
2023/06/11 06:29:08;;;;;;;11.98;6.72;;;22.30;99.90;;;;;;5054936;28;20048;-74
2023/06/11 06:31:36;;;;;;;10.65;7.38;;;22.10;99.90;;;;;;5058303;28;20041;-75
2023/06/11 06:34:03;;;;;;;13.18;7.50;;;21.90;99.90;;;;;;5035442;28;20353;-75
2023/06/11 06:36:28;;;;;;;11.48;8.02;;;21.70;99.90;;;;;;5058790;28;20056;-74
2023/06/11 06:38:54;;;;;;;14.55;7.60;;;21.60;99.90;;;;;;5052381;28;20044;-74
2023/06/11 06:41:20;;;;;;;13.95;8.10;;;21.40;99.90;;;;;;5053819;28;20037;-75
2023/06/11 06:43:46;;;;;;;12.27;7.95;;;21.30;99.90;;;;;;5052751;28;20143;-74
2023/06/11 06:46:12;;;;;;;9.55;7.25;;;21.30;99.90;;;;;;5055059;28;20041;-74
2023/06/11 06:48:38;;;;;;;10.55;7.53;;;21.20;99.90;;;;;;5053300;28;20055;-74
2023/06/11 06:51:03;;;;;;;15.18;8.27;;;21.10;99.90;;;;;;5057878;28;21245;-74
2023/06/11 06:53:29;;;;;;;11.93;7.60;;;21.10;99.90;;;;;;5086047;28;20054;-75
2023/06/11 06:55:55;;;;;;;10.93;7.95;;;21.10;99.90;;;;;;5059183;28;20036;-75
2023/06/11 06:58:20;;;;;;;14.63;8.40;;;21.10;99.90;;;;;;5057418;28;20170;-74
2023/06/11 07:00:46;;;;;;;11.05;8.35;;;21.10;99.90;;;;;;5055714;28;20052;-75
2023/06/11 07:03:13;;;;;;;13.93;7.43;;;21.10;99.90;;;;;;5057582;28;20106;-74
2023/06/11 07:05:40;;;;;;;12.20;8.05;;;21.10;99.90;;;;;;5061767;28;20127;-74
2023/06/11 07:08:07;;;;;;;15.27;7.35;;;21.20;99.90;;;;;;5057198;28;20924;-73
2023/06/11 07:10:33;;;;;;;10.85;7.75;;;21.20;99.90;;;;;;5050993;28;20067;-74
2023/06/11 07:12:58;;;;;;;12.60;7.93;;;21.30;99.90;;;;;;5052539;28;20040;-74
2023/06/11 07:15:24;;;;;;;11.38;7.53;;;21.40;99.90;;;;;;5063269;28;20077;-74
2023/06/11 07:17:50;;;;;;;14.15;7.30;;;21.50;99.90;;;;;;5067778;28;20051;-74
2023/06/11 07:20:16;;;;;;;11.02;7.47;;;21.60;99.90;;;;;;5055165;28;20041;-74
2023/06/11 07:22:41;;;;;;;14.18;7.35;;;21.70;99.90;;;;;;5038383;28;20085;-74
2023/06/11 07:25:07;;;;;;;13.60;8.13;;;21.80;99.90;;;;;;5053077;28;20044;-75
2023/06/11 07:27:33;;;;;;;10.75;7.30;;;22.00;99.90;;;;;;5032164;28;20056;-74
2023/06/11 07:29:59;;;;;;;11.30;7.78;;;22.20;99.90;;;;;;5054248;28;20967;-74
2023/06/11 07:32:24;;;;;;;13.63;7.50;;;22.30;99.90;;;;;;5034849;28;20433;-71
2023/06/11 07:34:50;;;;;;;14.35;7.47;;;22.40;99.90;;;;;;5052789;28;20029;-70
2023/06/11 07:37:16;;;;;;;10.98;7.50;;;22.50;99.90;;;;;;5067514;28;20043;-72
2023/06/11 07:39:42;;;;;;;12.68;7.55;;;22.70;99.90;;;;;;5057188;28;20044;-71
2023/06/11 07:42:08;;;;;;;13.88;7.25;;;22.80;99.90;;;;;;5057226;28;20127;-71
2023/06/11 07:44:34;;;;;;;10.65;7.60;;;22.90;99.90;;;;;;5057216;28;20040;-71
2023/06/11 07:46:59;;;;;;;11.40;7.47;;;23.00;99.90;;;;;;5055742;28;20052;-71
2023/06/11 07:49:25;;;;;;;21.02;7.55;;;23.10;99.90;;;;;;5050998;28;20041;-71
2023/06/11 07:51:51;;;;;;;10.45;7.35;;;23.20;99.90;;;;;;5056860;28;20045;-72
2023/06/11 07:54:17;;;;;;;12.55;7.63;;;23.30;99.90;;;;;;5093665;28;20036;-71
2023/06/11 07:56:46;;;;;;;9.80;6.93;;;23.40;99.90;;;;;;5052985;28;20044;-71
2023/06/11 07:59:13;;;;;;;10.95;7.05;;;23.50;99.90;;;;;;5047621;28;20041;-71
2023/06/11 08:01:38;;;;;;;12.95;6.90;;;23.60;99.90;;;;;;5045862;28;20057;-71
2023/06/11 08:04:04;;;;;;;9.50;6.60;;;23.70;99.90;;;;;;5045852;28;20561;-71
2023/06/11 08:06:30;;;;;;;12.02;6.72;;;23.80;99.90;;;;;;5050438;28;20045;-71
2023/06/11 08:08:56;;;;;;;10.45;6.57;;;24.00;99.90;;;;;;5064367;28;20044;-71
2023/06/11 08:11:22;;;;;;;11.32;6.97;;;24.00;99.90;;;;;;5031832;28;20045;-71
2023/06/11 08:13:48;;;;;;;12.43;6.93;;;24.20;99.90;;;;;;5050218;28;20048;-71
2023/06/11 08:16:15;;;;;;;10.15;6.70;;;24.20;99.90;;;;;;5045338;28;20044;-71
2023/06/11 08:18:41;;;;;;;11.32;6.85;;;24.40;99.90;;;;;;5024616;28;20136;-71
2023/06/11 08:21:06;;;;;;;13.60;6.47;;;24.40;99.90;;;;;;5052055;28;20041;-71
2023/06/11 08:23:36;;;;;;;11.07;6.75;;;24.50;99.90;;;;;;5058850;28;20036;-71
2023/06/11 08:26:02;;;;;;;10.20;6.93;;;24.60;99.90;;;;;;5057915;28;20091;-71
2023/06/11 08:28:28;;;;;;;9.15;6.47;;;24.70;99.90;;;;;;5045893;28;20135;-71
2023/06/11 08:30:55;;;;;;;9.20;6.50;;;24.80;99.90;;;;;;5033609;28;20044;-71
2023/06/11 08:33:21;;;;;;;10.32;6.53;;;24.80;99.90;;;;;;5035367;28;20045;-72
2023/06/11 08:35:47;;;;;;;12.80;6.50;;;24.90;99.90;;;;;;5039280;28;20557;-71
2023/06/11 08:38:14;;;;;;;8.90;6.10;;;24.90;99.90;;;;;;5036232;28;20040;-71
2023/06/11 08:40:41;;;;;;;10.48;6.95;;;25.00;99.90;;;;;;5054541;28;20052;-71
2023/06/11 08:43:08;;;;;;;11.73;6.80;;;25.20;99.90;;;;;;5039958;28;20044;-70
2023/06/11 08:45:34;;;;;;;9.77;6.43;;;25.30;99.90;;;;;;5048107;28;20048;-70
2023/06/11 08:48:02;;;;;;;8.55;6.40;;;25.30;99.90;;;;;;5038658;28;20044;-70
2023/06/11 08:50:29;;;;;;;8.82;6.45;;;25.40;99.90;;;;;;5068081;28;22175;-70
2023/06/11 08:52:56;;;;;;;9.07;6.38;;;25.50;99.90;;;;;;5039450;28;20501;-70
2023/06/11 08:55:22;;;;;;;12.63;6.38;;;25.50;99.90;;;;;;5044062;28;20055;-70
2023/06/11 08:57:51;;;;;;;11.00;5.93;;;25.60;99.90;;;;;;5052071;28;20044;-70
2023/06/11 09:00:17;;;;;;;11.32;6.68;;;25.70;99.90;;;;;;5033157;28;20171;-70
2023/06/11 09:02:43;;;;;;;8.75;6.38;;;25.80;99.90;;;;;;5050044;28;20097;-70
2023/06/11 09:05:11;;;;;;;11.73;6.18;;;25.90;99.90;;;;;;5053315;28;20043;-70
2023/06/11 09:07:36;;;;;;;12.57;6.18;;;25.90;99.90;;;;;;5049045;28;22207;-70
2023/06/11 09:10:04;;;;;;;9.25;5.97;;;26.00;99.90;;;;;;5046581;28;20264;-70
2023/06/11 09:12:30;;;;;;;11.95;6.20;;;26.10;99.90;;;;;;5081886;28;20053;-70
2023/06/11 09:14:55;;;;;;;9.00;6.07;;;26.10;99.90;;;;;;5037626;28;20557;-69
2023/06/11 09:17:21;;;;;;;11.10;6.40;;;26.10;99.90;;;;;;5048631;28;20497;-70
2023/06/11 09:19:47;;;;;;;10.88;6.18;;;26.30;99.90;;;;;;5048864;28;20147;-71
2023/06/11 09:22:14;;;;;;;9.50;6.05;;;26.30;99.90;;;;;;5051488;28;20045;-69
2023/06/11 09:24:40;;;;;;;10.07;6.13;;;26.30;99.90;;;;;;5065787;28;20522;-69
2023/06/11 09:27:06;;;;;;;10.40;5.53;;;26.40;99.90;;;;;;5051128;28;20037;-70
2023/06/11 09:29:34;;;;;;;11.25;6.30;;;26.50;99.90;;;;;;5052450;28;20138;-70
2023/06/11 09:32:09;;;;;;;11.40;5.97;;;26.60;99.90;;;;;;5053462;28;20048;-71
2023/06/11 09:34:35;;;;;;;8.32;5.95;;;26.60;99.90;;;;;;5048069;28;20047;-70
2023/06/11 09:37:02;;;;;;;9.52;5.93;;;26.70;99.90;;;;;;5049232;28;20040;-71
2023/06/11 09:39:30;;;;;;;8.85;5.78;;;26.80;99.90;;;;;;5045865;28;20044;-70
2023/06/11 09:41:56;;;;;;;8.43;6.07;;;26.90;99.90;;;;;;5082995;28;20556;-71
2023/06/11 09:44:26;;;;;;;9.23;5.25;;;27.00;99.90;;;;;;5068215;28;20052;-70
2023/06/11 09:46:52;;;;;;;8.43;5.78;;;27.00;99.90;;;;;;5051168;28;20040;-71
2023/06/11 09:49:18;;;;;;;9.48;6.15;;;27.00;99.90;;;;;;5057913;28;20045;-71
2023/06/11 09:51:44;;;;;;;9.80;5.80;;;27.10;99.90;;;;;;5055606;28;20390;-71
2023/06/11 09:54:12;;;;;;;9.32;6.38;;;27.10;99.90;;;;;;5057375;28;20037;-72
2023/06/11 09:56:38;;;;;;;8.60;5.60;;;27.20;99.90;;;;;;5051411;28;20140;-72
2023/06/11 09:59:05;;;;;;;10.65;5.57;;;27.30;99.90;;;;;;5035775;28;20044;-72
2023/06/11 10:01:33;;;;;;;9.02;5.45;;;27.30;99.90;;;;;;5049380;28;20041;-71
2023/06/11 10:03:59;;;;;;;10.95;6.05;;;27.40;99.90;;;;;;5033514;28;20076;-73
2023/06/11 10:06:37;;;;;;;12.10;5.75;;;27.40;99.90;;;;;;5055400;28;20044;-71
2023/06/11 10:09:07;;;;;;;8.65;5.50;;;27.50;99.90;;;;;;5049860;28;20048;-71
2023/06/11 10:11:38;;;;;;;10.20;5.68;;;27.60;99.90;;;;;;5044959;28;20052;-71
2023/06/11 10:14:05;;;;;;;8.65;5.55;;;27.60;99.90;;;;;;5032716;28;22008;-70
2023/06/11 10:16:34;;;;;;;8.25;5.43;;;27.70;99.90;;;;;;5046986;28;20595;-71
2023/06/11 10:19:10;;;;;;;10.90;5.15;;;27.80;99.90;;;;;;5043762;28;20094;-70
2023/06/11 10:21:42;;;;;;;8.98;5.47;;;27.80;99.90;;;;;;5027800;28;20567;-71
2023/06/11 10:24:24;;;;;;;8.35;4.95;;;27.90;99.90;;;;;;5043271;28;20048;-70
2023/06/11 10:27:09;;;;;;;9.75;5.28;;;28.00;99.90;;;;;;5050452;28;20056;-69
2023/06/11 10:29:57;;;;;;;8.05;5.10;;;28.00;99.90;;;;;;5048223;28;20091;-70
2023/06/11 10:32:23;;;;;;;10.13;5.10;;;28.10;99.90;;;;;;5048855;28;20044;-70
2023/06/11 10:35:04;;;;;;;9.13;5.45;;;28.10;99.90;;;;;;5053368;28;20036;-70
2023/06/11 10:37:36;;;;;;;8.23;4.93;;;28.20;99.90;;;;;;5068844;28;20136;-71
2023/06/11 10:40:03;;;;;;;9.13;4.72;;;28.30;99.90;;;;;;5043408;28;20043;-69
2023/06/11 10:42:38;;;;;;;7.28;5.05;;;28.30;99.90;;;;;;5044277;28;20127;-70
2023/06/11 10:45:11;;;;;;;8.68;5.07;;;28.30;99.90;;;;;;5050102;28;20052;-71
2023/06/11 10:47:47;;;;;;;8.77;5.25;;;28.40;99.50;;;;;;5043917;28;20056;-70
2023/06/11 10:50:15;;;;;;;8.68;5.05;;;28.40;99.90;;;;;;5042992;28;20047;-70
2023/06/11 10:52:48;;;;;;;8.65;5.15;;;28.40;99.90;;;;;;5040628;28;21072;-70
2023/06/11 10:55:16;;;;;;;7.78;5.05;;;28.50;99.70;;;;;;5046386;28;20151;-70
2023/06/11 10:57:42;;;;;;;8.23;5.20;;;28.50;99.60;;;;;;5085109;28;20094;-70
2023/06/11 11:00:09;;;;;;;9.88;5.00;;;28.50;98.90;;;;;;5052513;28;20437;-71
2023/06/11 11:02:35;;;;;;;8.52;5.35;;;28.50;99.00;;;;;;5050373;28;20131;-70
2023/06/11 11:05:01;;;;;;;9.48;5.35;;;28.50;99.10;;;;;;5050271;28;20064;-70
2023/06/11 11:07:33;;;;;;;11.13;5.50;;;28.60;98.30;;;;;;5032163;28;20869;-71
2023/06/11 11:10:00;;;;;;;9.77;5.03;;;28.60;99.10;;;;;;5052847;28;20048;-70
2023/06/11 11:12:26;;;;;;;10.50;5.05;;;28.70;99.40;;;;;;5050207;28;20114;-70
2023/06/11 11:14:52;;;;;;;12.07;5.00;;;28.70;97.50;;;;;;5052695;28;20037;-69
2023/06/11 11:17:18;;;;;;;10.75;5.10;;;28.70;98.60;;;;;;5051683;28;20065;-70
2023/06/11 11:19:44;;;;;;;9.57;4.82;;;28.80;98.40;;;;;;5086179;28;20075;-71
2023/06/11 11:22:13;;;;;;;6.53;4.60;;;28.90;98.30;;;;;;5034455;28;20131;-71
2023/06/11 11:24:39;;;;;;;8.05;4.38;;;28.90;97.80;;;;;;5060814;28;20041;-70
2023/06/11 11:27:06;;;;;;;12.15;4.80;;;28.90;97.60;;;;;;5060914;28;20059;-71
2023/06/11 11:29:32;;;;;;;9.93;5.15;;;28.90;97.70;;;;;;5060516;28;20068;-71
2023/06/11 11:31:59;;;;;;;6.80;4.70;;;28.90;97.40;;;;;;5056320;28;20083;-71
2023/06/11 11:34:27;;;;;;;6.43;4.25;;;28.90;96.30;;;;;;5056775;28;20041;-71
2023/06/11 11:36:57;;;;;;;9.60;5.10;;;29.00;96.40;;;;;;5032338;28;20049;-71
2023/06/11 11:39:22;;;;;;;7.88;4.88;;;29.00;96.20;;;;;;5049507;28;20049;-70
2023/06/11 11:41:50;;;;;;;6.68;4.68;;;29.00;95.40;;;;;;5050861;28;20048;-71
2023/06/11 11:44:16;;;;;;;10.00;4.40;;;29.00;95.50;;;;;;5051929;28;20080;-70
2023/06/11 11:46:42;;;;;;;7.57;4.45;;;29.10;96.20;;;;;;5083006;28;20052;-70
2023/06/11 11:49:09;;;;;;;9.13;4.32;;;29.10;95.00;;;;;;5050196;28;20125;-71
2023/06/11 11:51:45;;;;;;;7.97;4.70;;;29.10;95.90;;;;;;5047221;28;20072;-70
2023/06/11 11:54:14;;;;;;;9.68;4.47;;;29.10;93.40;;;;;;5026934;28;20536;-70
2023/06/11 11:56:40;;;;;;;6.38;4.32;;;29.20;93.90;;;;;;5045813;28;20106;-69
2023/06/11 11:59:16;;;;;;;6.95;4.32;;;29.10;95.10;;;;;;5053293;28;20048;-69
2023/06/11 12:01:56;;;;;;;9.32;4.80;;;29.10;94.60;;;;;;5080535;28;20155;-70
2023/06/11 12:04:37;;;;;;;6.67;4.50;;;29.20;93.80;;;;;;5036056;28;20127;-71
2023/06/11 12:07:10;;;;;;;11.68;4.28;;;29.30;93.20;;;;;;5037184;28;20343;-70
2023/06/11 12:09:38;;;;;;;8.82;4.32;;;29.30;94.70;;;;;;5027990;28;20048;-70
2023/06/11 12:12:04;;;;;;;7.35;4.53;;;29.40;94.60;;;;;;5055201;28;20052;-70
2023/06/11 12:14:30;;;;;;;8.80;4.50;;;29.40;93.80;;;;;;5052575;28;20078;-70
2023/06/11 12:16:55;;;;;;;8.88;4.30;;;29.50;92.30;;;;;;5054505;28;20541;-70
2023/06/11 12:19:21;;;;;;;8.52;5.00;;;29.50;92.10;;;;;;5055359;28;20111;-70
2023/06/11 12:21:47;;;;;;;8.35;4.60;;;29.40;91.60;;;;;;5058331;28;20052;-69
2023/06/11 12:24:17;;;;;;;7.38;4.50;;;29.40;91.90;;;;;;5054642;28;20127;-69
2023/06/11 12:26:47;;;;;;;6.83;4.53;;;29.30;92.00;;;;;;5041580;28;20053;-69
2023/06/11 12:29:14;;;;;;;6.72;4.18;;;29.20;91.10;;;;;;5052214;28;20044;-69
2023/06/11 12:31:39;;;;;;;10.32;4.50;;;29.20;90.40;;;;;;5049013;28;20543;-69
2023/06/11 12:34:06;;;;;;;8.07;4.43;;;29.10;90.70;;;;;;5058855;28;20123;-69
2023/06/11 12:36:33;;;;;;;10.18;4.80;;;29.00;90.90;;;;;;5042162;28;20059;-70
2023/06/11 12:39:01;;;;;;;9.38;4.38;;;29.00;90.40;;;;;;5055866;28;20041;-69
2023/06/11 12:41:27;;;;;;;9.45;5.13;;;28.90;90.50;;;;;;5036829;28;20028;-70